Aérodrome :
LOGIN :

S'inscrire | Disclaimer

   EN    FR    IT 

 










Légende :    VFR   VFR Marginal   IFR   IFR Intensif   IFR Très Intensif
Visi : 
Plafond : 
>= 8 km
>= 3000ft
5 à 8 km
1000 à 3000 ft
1500m à 5 km
500 à 1000 ft
800 à 1500m
200 à 500 ft
< 800m
< 200 ft
Symboles :   Orages  Brouillard  Fortes neiges  Fortes précipitations  Vent > 20 kt
SIGMETs :   Divers  Orages  Givrage  Turbulence  Onde Orograph.  Cendres Volcan.






- Altitude de l'aérodrome : 154 ft
- Code IATA : PKV


ULOO - Pskov

DERNIER METAR :
  • 071330Z 21008MPS CAVOK 20/M03 Q1021 R19/090065 NOSIG RMK QFE761

METARs EXPIRÉS :
  • 071300Z 21008MPS 170V240 CAVOK 20/M03 Q1022 R19/090065 NOSIG RMK QFE762
  • 071230Z 22008MPS CAVOK 20/M03 Q1022 R19/090065 NOSIG RMK QFE762
  • 071200Z 22007MPS CAVOK 20/M04 Q1023 R19/090065 NOSIG RMK QFE763
  • 071130Z 22008MPS CAVOK 19/M04 Q1023 R19/090065 NOSIG RMK QFE763

TAF TAF ULOO
Valide du 07 à 12h jusqu'au 07 à 21h UTC


071058Z 0712/0721 21007MPS 9999 SCT020
TEMPO 0712/0716 23008G14MPS
BECMG 0716/0718 25006MPS
TEMPO 0718/0721 29007G13MPS 4000 -SHRA BKN020CB



MET'MAP, la Météo Aéronautique d'un coup d'oeil ! - Copyright ORBIFLY Décembre 2007 - Disclaimer

ORBIFLY MET'MAP TEAM :

Programmation & Développement : Alexandra Zaïnal
Sur une idée originale de : Baudouin d'Aumeries
Assistance à la programmation : Marc-Olivier Méhu
Soutien technique & logistique : Manuel Goepfert

Contact : metmap@orbifly.com




SOURCES & CREDITS :

   NOAA